sensor_id;sensor_type;location;lat;lon;timestamp;pressure;altitude;pressure_sealevel;temperature;humidity
10310;BME280;5200;43.236;27.986;2022-08-19T00:00:36;99525.53;;;23.15;77.83
10310;BME280;5200;43.236;27.986;2022-08-19T00:03:04;99531.63;;;23.23;77.90
10310;BME280;5200;43.236;27.986;2022-08-19T00:05:32;99533.28;;;23.24;77.60
10310;BME280;5200;43.236;27.986;2022-08-19T00:07:59;99538.97;;;23.27;77.48
10310;BME280;5200;43.236;27.986;2022-08-19T00:10:26;99549.47;;;23.29;77.41
10310;BME280;5200;43.236;27.986;2022-08-19T00:12:53;99547.84;;;23.28;77.44
10310;BME280;5200;43.236;27.986;2022-08-19T00:15:21;99543.53;;;23.27;77.31
10310;BME280;5200;43.236;27.986;2022-08-19T00:17:48;99542.72;;;23.26;77.32
10310;BME280;5200;43.236;27.986;2022-08-19T00:20:20;99542.13;;;23.24;77.58
10310;BME280;5200;43.236;27.986;2022-08-19T00:22:47;99540.13;;;23.19;77.40
10310;BME280;5200;43.236;27.986;2022-08-19T00:25:15;99543.41;;;23.21;77.56
10310;BME280;5200;43.236;27.986;2022-08-19T00:27:42;99540.94;;;23.20;77.75
10310;BME280;5200;43.236;27.986;2022-08-19T00:30:10;99543.84;;;23.18;78.06
10310;BME280;5200;43.236;27.986;2022-08-19T00:32:39;99540.56;;;23.16;78.05
10310;BME280;5200;43.236;27.986;2022-08-19T00:35:07;99534.06;;;23.12;78.28
10310;BME280;5200;43.236;27.986;2022-08-19T00:37:35;99526.72;;;23.08;78.27
10310;BME280;5200;43.236;27.986;2022-08-19T00:40:04;99529.13;;;23.09;78.20
10310;BME280;5200;43.236;27.986;2022-08-19T00:42:31;99530.19;;;23.08;78.24
10310;BME280;5200;43.236;27.986;2022-08-19T00:44:58;99528.00;;;23.05;78.47
10310;BME280;5200;43.236;27.986;2022-08-19T00:47:25;99524.25;;;23.06;78.33
10310;BME280;5200;43.236;27.986;2022-08-19T00:49:55;99541.06;;;23.13;78.22
10310;BME280;5200;43.236;27.986;2022-08-19T00:52:26;99534.06;;;23.12;78.20
10310;BME280;5200;43.236;27.986;2022-08-19T00:54:55;99537.78;;;23.11;78.21
10310;BME280;5200;43.236;27.986;2022-08-19T00:57:25;99544.53;;;23.14;78.15
10310;BME280;5200;43.236;27.986;2022-08-19T00:59:56;99534.50;;;23.09;78.07
10310;BME280;5200;43.236;27.986;2022-08-19T01:02:24;99545.38;;;23.03;78.24
10310;BME280;5200;43.236;27.986;2022-08-19T01:04:52;99540.81;;;23.03;78.53
10310;BME280;5200;43.236;27.986;2022-08-19T01:07:19;99540.44;;;22.99;78.49
10310;BME280;5200;43.236;27.986;2022-08-19T01:09:47;99543.78;;;22.95;78.79
10310;BME280;5200;43.236;27.986;2022-08-19T01:12:14;99551.81;;;22.95;78.78
10310;BME280;5200;43.236;27.986;2022-08-19T01:14:42;99535.72;;;22.95;78.78
10310;BME280;5200;43.236;27.986;2022-08-19T01:17:10;99540.28;;;22.94;79.31
10310;BME280;5200;43.236;27.986;2022-08-19T01:19:40;99545.06;;;22.92;79.02
10310;BME280;5200;43.236;27.986;2022-08-19T01:22:14;99541.78;;;22.90;79.24
10310;BME280;5200;43.236;27.986;2022-08-19T01:24:43;99550.44;;;22.92;79.23
10310;BME280;5200;43.236;27.986;2022-08-19T01:27:10;99541.78;;;22.90;79.26
10310;BME280;5200;43.236;27.986;2022-08-19T01:29:38;99536.06;;;22.87;79.29
10310;BME280;5200;43.236;27.986;2022-08-19T01:32:05;99539.44;;;22.82;79.54
10310;BME280;5200;43.236;27.986;2022-08-19T01:34:32;99539.06;;;22.78;79.71
10310;BME280;5200;43.236;27.986;2022-08-19T01:37:00;99536.63;;;22.77;79.57
10310;BME280;5200;43.236;27.986;2022-08-19T01:39:33;99522.25;;;22.71;79.85
10310;BME280;5200;43.236;27.986;2022-08-19T01:42:02;99525.66;;;22.78;79.51
10310;BME280;5200;43.236;27.986;2022-08-19T01:44:30;99528.13;;;22.80;79.81
10310;BME280;5200;43.236;27.986;2022-08-19T01:46:57;99521.03;;;22.86;79.28
10310;BME280;5200;43.236;27.986;2022-08-19T01:49:24;99528.63;;;22.89;79.46
10310;BME280;5200;43.236;27.986;2022-08-19T01:51:52;99534.00;;;22.89;79.25
10310;BME280;5200;43.236;27.986;2022-08-19T01:54:21;99530.94;;;22.85;79.31
10310;BME280;5200;43.236;27.986;2022-08-19T01:56:50;99539.66;;;22.80;79.91
10310;BME280;5200;43.236;27.986;2022-08-19T01:59:21;99536.97;;;22.80;79.65
10310;BME280;5200;43.236;27.986;2022-08-19T02:01:49;99530.00;;;22.79;79.87
10310;BME280;5200;43.236;27.986;2022-08-19T02:04:16;99534.19;;;22.75;80.09
10310;BME280;5200;43.236;27.986;2022-08-19T02:06:43;99531.97;;;22.72;80.44
10310;BME280;5200;43.236;27.986;2022-08-19T02:09:10;99533.47;;;22.68;80.56
10310;BME280;5200;43.236;27.986;2022-08-19T02:11:37;99526.56;;;22.61;80.32
10310;BME280;5200;43.236;27.986;2022-08-19T02:14:06;99522.91;;;22.55;80.80
10310;BME280;5200;43.236;27.986;2022-08-19T02:16:35;99530.81;;;22.50;81.32
10310;BME280;5200;43.236;27.986;2022-08-19T02:19:03;99532.09;;;22.47;81.19
10310;BME280;5200;43.236;27.986;2022-08-19T02:21:30;99522.66;;;22.45;81.86
10310;BME280;5200;43.236;27.986;2022-08-19T02:23:57;99521.84;;;22.44;81.84
10310;BME280;5200;43.236;27.986;2022-08-19T02:26:25;99525.78;;;22.42;81.83
10310;BME280;5200;43.236;27.986;2022-08-19T02:28:53;99515.66;;;22.44;82.18
10310;BME280;5200;43.236;27.986;2022-08-19T02:31:22;99518.34;;;22.44;81.95
10310;BME280;5200;43.236;27.986;2022-08-19T02:33:51;99512.59;;;22.40;82.44
10310;BME280;5200;43.236;27.986;2022-08-19T02:36:19;99509.59;;;22.36;82.28
10310;BME280;5200;43.236;27.986;2022-08-19T02:38:46;99508.38;;;22.32;82.42
10310;BME280;5200;43.236;27.986;2022-08-19T02:41:15;99512.94;;;22.32;82.07
10310;BME280;5200;43.236;27.986;2022-08-19T02:43:43;99513.03;;;22.25;82.62
10310;BME280;5200;43.236;27.986;2022-08-19T02:46:14;99516.38;;;22.21;82.61
10310;BME280;5200;43.236;27.986;2022-08-19T02:48:43;99517.63;;;22.18;82.56
10310;BME280;5200;43.236;27.986;2022-08-19T02:51:17;99517.44;;;22.13;83.35
10310;BME280;5200;43.236;27.986;2022-08-19T02:53:44;99523.25;;;22.10;83.14
10310;BME280;5200;43.236;27.986;2022-08-19T02:56:11;99525.47;;;22.13;83.36
10310;BME280;5200;43.236;27.986;2022-08-19T02:58:38;99515.69;;;22.07;83.31
10310;BME280;5200;43.236;27.986;2022-08-19T03:01:05;99518.97;;;22.09;83.19
10310;BME280;5200;43.236;27.986;2022-08-19T03:03:33;99514.41;;;22.09;83.66
10310;BME280;5200;43.236;27.986;2022-08-19T03:06:05;99516.88;;;22.11;83.50
10310;BME280;5200;43.236;27.986;2022-08-19T03:08:34;99523.41;;;22.15;83.55
10310;BME280;5200;43.236;27.986;2022-08-19T03:11:02;99524.59;;;22.19;83.56
10310;BME280;5200;43.236;27.986;2022-08-19T03:13:29;99521.28;;;22.24;83.04
10310;BME280;5200;43.236;27.986;2022-08-19T03:15:56;99523.06;;;22.30;83.02
10310;BME280;5200;43.236;27.986;2022-08-19T03:18:23;99525.66;;;22.36;82.47
10310;BME280;5200;43.236;27.986;2022-08-19T03:20:51;99526.81;;;22.41;82.38
10310;BME280;5200;43.236;27.986;2022-08-19T03:23:20;99528.94;;;22.50;82.50
10310;BME280;5200;43.236;27.986;2022-08-19T03:25:50;99526.78;;;22.59;81.96
10310;BME280;5200;43.236;27.986;2022-08-19T03:28:17;99524.72;;;22.73;81.00
10310;BME280;5200;43.236;27.986;2022-08-19T03:30:55;99537.25;;;22.91;80.57
10310;BME280;5200;43.236;27.986;2022-08-19T03:33:23;99527.50;;;23.08;79.41
10310;BME280;5200;43.236;27.986;2022-08-19T03:36:00;99539.09;;;23.32;78.37
10310;BME280;5200;43.236;27.986;2022-08-19T03:38:27;99545.75;;;23.53;77.58
10310;BME280;5200;43.236;27.986;2022-08-19T03:40:56;99545.75;;;23.77;76.82
10310;BME280;5200;43.236;27.986;2022-08-19T03:43:22;99549.00;;;24.02;75.79
10310;BME280;5200;43.236;27.986;2022-08-19T03:45:59;99551.72;;;24.31;74.59
10310;BME280;5200;43.236;27.986;2022-08-19T03:48:28;99544.75;;;24.59;73.34
10310;BME280;5200;43.236;27.986;2022-08-19T03:50:56;99547.81;;;24.79;72.30
10310;BME280;5200;43.236;27.986;2022-08-19T03:53:24;99545.00;;;25.03;71.19
10310;BME280;5200;43.236;27.986;2022-08-19T03:55:53;99551.00;;;25.22;70.04
10310;BME280;5200;43.236;27.986;2022-08-19T03:58:21;99545.75;;;25.32;69.79
10310;BME280;5200;43.236;27.986;2022-08-19T04:00:48;99554.97;;;25.53;68.23
10310;BME280;5200;43.236;27.986;2022-08-19T04:03:15;99554.69;;;25.71;67.53
10310;BME280;5200;43.236;27.986;2022-08-19T04:05:44;99558.75;;;25.91;66.69
10310;BME280;5200;43.236;27.986;2022-08-19T04:08:12;99554.31;;;26.02;66.03
10310;BME280;5200;43.236;27.986;2022-08-19T04:10:41;99560.63;;;26.12;65.36
10310;BME280;5200;43.236;27.986;2022-08-19T04:13:08;99559.63;;;26.19;64.97
10310;BME280;5200;43.236;27.986;2022-08-19T04:15:40;99556.00;;;26.30;64.49
10310;BME280;5200;43.236;27.986;2022-08-19T04:18:08;99551.84;;;26.44;63.88
10310;BME280;5200;43.236;27.986;2022-08-19T04:20:40;99562.91;;;26.65;63.36
10310;BME280;5200;43.236;27.986;2022-08-19T04:23:07;99565.22;;;26.83;62.80
10310;BME280;5200;43.236;27.986;2022-08-19T04:25:36;99578.53;;;26.95;61.99
10310;BME280;5200;43.236;27.986;2022-08-19T04:28:04;99569.75;;;27.05;61.74
10310;BME280;5200;43.236;27.986;2022-08-19T04:30:36;99567.66;;;27.12;60.78
10310;BME280;5200;43.236;27.986;2022-08-19T04:33:04;99573.44;;;27.26;60.83
10310;BME280;5200;43.236;27.986;2022-08-19T04:35:35;99564.84;;;27.29;60.73
10310;BME280;5200;43.236;27.986;2022-08-19T04:38:03;99573.81;;;27.39;59.72
10310;BME280;5200;43.236;27.986;2022-08-19T04:40:30;99567.94;;;27.48;59.95
10310;BME280;5200;43.236;27.986;2022-08-19T04:43:14;99566.94;;;27.59;59.11
10310;BME280;5200;43.236;27.986;2022-08-19T04:45:42;99568.81;;;27.58;59.02
10310;BME280;5200;43.236;27.986;2022-08-19T04:48:10;99573.09;;;27.49;59.73
10310;BME280;5200;43.236;27.986;2022-08-19T04:50:40;99585.22;;;27.47;59.81
10310;BME280;5200;43.236;27.986;2022-08-19T04:53:08;99581.44;;;27.48;60.02
10310;BME280;5200;43.236;27.986;2022-08-19T04:55:38;99582.19;;;27.75;58.92
10310;BME280;5200;43.236;27.986;2022-08-19T04:58:06;99581.22;;;27.92;58.05
10310;BME280;5200;43.236;27.986;2022-08-19T05:00:33;99584.75;;;27.97;58.05
10310;BME280;5200;43.236;27.986;2022-08-19T05:03:00;99583.75;;;28.14;58.14
10310;BME280;5200;43.236;27.986;2022-08-19T05:05:29;99588.94;;;28.31;57.60
10310;BME280;5200;43.236;27.986;2022-08-19T05:07:57;99578.78;;;28.48;57.41
10310;BME280;5200;43.236;27.986;2022-08-19T05:10:24;99576.34;;;28.57;57.02
10310;BME280;5200;43.236;27.986;2022-08-19T05:12:50;99578.81;;;28.69;56.53
10310;BME280;5200;43.236;27.986;2022-08-19T05:15:17;99583.72;;;28.77;56.16
10310;BME280;5200;43.236;27.986;2022-08-19T05:17:45;99585.91;;;29.00;55.42
10310;BME280;5200;43.236;27.986;2022-08-19T05:20:25;99575.66;;;29.13;54.61
10310;BME280;5200;43.236;27.986;2022-08-19T05:23:11;99578.63;;;29.16;55.14
10310;BME280;5200;43.236;27.986;2022-08-19T05:25:42;99582.13;;;29.37;54.23
10310;BME280;5200;43.236;27.986;2022-08-19T05:28:10;99583.47;;;29.55;53.97
10310;BME280;5200;43.236;27.986;2022-08-19T05:30:36;99576.72;;;29.73;52.71
10310;BME280;5200;43.236;27.986;2022-08-19T05:33:03;99573.44;;;29.76;52.79
10310;BME280;5200;43.236;27.986;2022-08-19T05:35:30;99570.72;;;29.76;52.40
10310;BME280;5200;43.236;27.986;2022-08-19T05:37:57;99573.41;;;29.81;52.73
10310;BME280;5200;43.236;27.986;2022-08-19T05:40:25;99569.34;;;29.84;52.26
10310;BME280;5200;43.236;27.986;2022-08-19T05:42:52;99571.22;;;29.88;52.48
10310;BME280;5200;43.236;27.986;2022-08-19T05:45:19;99567.66;;;30.03;51.33
10310;BME280;5200;43.236;27.986;2022-08-19T05:47:47;99571.19;;;30.04;51.68
10310;BME280;5200;43.236;27.986;2022-08-19T05:50:14;99566.81;;;30.08;51.48
10310;BME280;5200;43.236;27.986;2022-08-19T05:52:42;99566.81;;;30.08;51.48
10310;BME280;5200;43.236;27.986;2022-08-19T05:55:10;99558.09;;;30.26;51.38
10310;BME280;5200;43.236;27.986;2022-08-19T05:57:38;99560.00;;;30.21;50.88
10310;BME280;5200;43.236;27.986;2022-08-19T06:00:06;99550.47;;;30.23;51.10
10310;BME280;5200;43.236;27.986;2022-08-19T06:02:35;99558.34;;;30.30;50.84
10310;BME280;5200;43.236;27.986;2022-08-19T06:05:03;99561.81;;;30.41;50.47
10310;BME280;5200;43.236;27.986;2022-08-19T06:07:31;99553.66;;;30.41;50.76
10310;BME280;5200;43.236;27.986;2022-08-19T06:09:58;99556.91;;;30.43;50.62
10310;BME280;5200;43.236;27.986;2022-08-19T06:12:25;99560.66;;;30.52;50.67
10310;BME280;5200;43.236;27.986;2022-08-19T06:15:02;99559.47;;;30.68;49.73
10310;BME280;5200;43.236;27.986;2022-08-19T06:17:30;99551.28;;;30.73;49.87
10310;BME280;5200;43.236;27.986;2022-08-19T06:19:57;99551.66;;;31.01;49.04
10310;BME280;5200;43.236;27.986;2022-08-19T06:22:24;99556.22;;;31.11;48.59
10310;BME280;5200;43.236;27.986;2022-08-19T06:24:51;99552.00;;;30.94;49.04
10310;BME280;5200;43.236;27.986;2022-08-19T06:27:19;99555.28;;;30.91;49.37
10310;BME280;5200;43.236;27.986;2022-08-19T06:29:46;99552.47;;;31.02;48.85
10310;BME280;5200;43.236;27.986;2022-08-19T06:32:16;99547.13;;;31.26;48.70
10310;BME280;5200;43.236;27.986;2022-08-19T06:34:43;99554.06;;;31.42;48.27
10310;BME280;5200;43.236;27.986;2022-08-19T06:37:11;99549.16;;;31.39;48.12
10310;BME280;5200;43.236;27.986;2022-08-19T06:39:43;99549.59;;;31.51;48.11
10310;BME280;5200;43.236;27.986;2022-08-19T06:42:11;99552.44;;;31.65;47.93
10310;BME280;5200;43.236;27.986;2022-08-19T06:44:42;99556.81;;;31.90;46.99
10310;BME280;5200;43.236;27.986;2022-08-19T06:47:13;99561.00;;;32.07;46.51
10310;BME280;5200;43.236;27.986;2022-08-19T06:49:42;99560.19;;;32.06;46.09
10310;BME280;5200;43.236;27.986;2022-08-19T06:52:09;99559.50;;;31.95;46.37
10310;BME280;5200;43.236;27.986;2022-08-19T06:54:37;99562.94;;;31.77;46.65
10310;BME280;5200;43.236;27.986;2022-08-19T06:57:05;99578.72;;;31.75;47.35
10310;BME280;5200;43.236;27.986;2022-08-19T06:59:34;99552.41;;;31.94;46.97
10310;BME280;5200;43.236;27.986;2022-08-19T07:02:05;99559.66;;;32.04;45.85
10310;BME280;5200;43.236;27.986;2022-08-19T07:04:36;99562.25;;;32.14;46.76
10310;BME280;5200;43.236;27.986;2022-08-19T07:07:08;99557.56;;;32.20;46.63
10310;BME280;5200;43.236;27.986;2022-08-19T07:09:39;99546.81;;;32.29;45.71
10310;BME280;5200;43.236;27.986;2022-08-19T07:12:08;99554.00;;;32.43;45.84
10310;BME280;5200;43.236;27.986;2022-08-19T07:14:36;99554.38;;;32.56;45.51
10310;BME280;5200;43.236;27.986;2022-08-19T07:17:05;99555.84;;;32.67;45.01
10310;BME280;5200;43.236;27.986;2022-08-19T07:19:33;99552.34;;;32.23;45.14
10310;BME280;5200;43.236;27.986;2022-08-19T07:22:02;99556.47;;;32.21;45.91
10310;BME280;5200;43.236;27.986;2022-08-19T07:24:31;99539.25;;;32.44;45.24
10310;BME280;5200;43.236;27.986;2022-08-19T07:27:00;99545.63;;;32.59;45.17
10310;BME280;5200;43.236;27.986;2022-08-19T07:29:30;99544.69;;;32.44;44.68
10310;BME280;5200;43.236;27.986;2022-08-19T07:31:59;99551.88;;;32.16;44.88
10310;BME280;5200;43.236;27.986;2022-08-19T07:34:27;99551.72;;;32.08;46.19
10310;BME280;5200;43.236;27.986;2022-08-19T07:36:56;99551.97;;;32.11;45.57
10310;BME280;5200;43.236;27.986;2022-08-19T07:39:25;99555.28;;;32.27;45.28
10310;BME280;5200;43.236;27.986;2022-08-19T07:41:55;99559.56;;;32.33;45.50
10310;BME280;5200;43.236;27.986;2022-08-19T07:44:22;99554.59;;;32.16;45.90
10310;BME280;5200;43.236;27.986;2022-08-19T07:46:51;99548.59;;;32.38;45.43
10310;BME280;5200;43.236;27.986;2022-08-19T07:49:18;99551.06;;;32.59;44.41
10310;BME280;5200;43.236;27.986;2022-08-19T07:51:47;99549.72;;;32.75;43.55
10310;BME280;5200;43.236;27.986;2022-08-19T07:54:15;99544.50;;;32.79;43.56
10310;BME280;5200;43.236;27.986;2022-08-19T07:56:42;99550.94;;;32.69;43.97
10310;BME280;5200;43.236;27.986;2022-08-19T07:59:10;99546.22;;;32.56;44.03
10310;BME280;5200;43.236;27.986;2022-08-19T08:01:37;99544.19;;;32.42;44.31
10310;BME280;5200;43.236;27.986;2022-08-19T08:04:06;99543.97;;;32.20;45.07
10310;BME280;5200;43.236;27.986;2022-08-19T08:06:51;99540.72;;;32.18;44.41
10310;BME280;5200;43.236;27.986;2022-08-19T08:09:37;99552.09;;;32.01;45.34
10310;BME280;5200;43.236;27.986;2022-08-19T08:12:08;99537.47;;;32.16;44.31
10310;BME280;5200;43.236;27.986;2022-08-19T08:14:39;99539.69;;;32.14;44.08
10310;BME280;5200;43.236;27.986;2022-08-19T08:17:08;99531.59;;;31.85;44.55
10310;BME280;5200;43.236;27.986;2022-08-19T08:19:36;99535.72;;;31.77;46.00
10310;BME280;5200;43.236;27.986;2022-08-19T08:22:03;99543.44;;;32.18;43.95
10310;BME280;5200;43.236;27.986;2022-08-19T08:24:32;99542.56;;;32.22;44.46
10310;BME280;5200;43.236;27.986;2022-08-19T08:27:01;99547.22;;;32.22;42.60
10310;BME280;5200;43.236;27.986;2022-08-19T08:29:30;99543.88;;;32.06;42.73
10310;BME280;5200;43.236;27.986;2022-08-19T08:31:58;99537.63;;;32.06;43.92
10310;BME280;5200;43.236;27.986;2022-08-19T08:34:25;99527.41;;;32.16;42.61
10310;BME280;5200;43.236;27.986;2022-08-19T08:36:52;99530.56;;;32.23;43.21
10310;BME280;5200;43.236;27.986;2022-08-19T08:39:20;99524.09;;;32.38;41.99
10310;BME280;5200;43.236;27.986;2022-08-19T08:41:53;99524.59;;;32.40;43.45
10310;BME280;5200;43.236;27.986;2022-08-19T08:44:26;99513.88;;;32.49;42.14
10310;BME280;5200;43.236;27.986;2022-08-19T08:47:01;99516.94;;;32.80;41.96
10310;BME280;5200;43.236;27.986;2022-08-19T08:49:35;99508.91;;;33.08;41.00
10310;BME280;5200;43.236;27.986;2022-08-19T08:52:06;99523.19;;;33.00;40.01
10310;BME280;5200;43.236;27.986;2022-08-19T08:54:37;99512.28;;;32.67;41.36
10310;BME280;5200;43.236;27.986;2022-08-19T08:57:10;99516.91;;;32.85;41.49
10310;BME280;5200;43.236;27.986;2022-08-19T08:59:41;99519.16;;;32.78;40.58
10310;BME280;5200;43.236;27.986;2022-08-19T09:02:11;99531.72;;;32.60;40.86
10310;BME280;5200;43.236;27.986;2022-08-19T09:04:38;99526.75;;;32.06;41.73
10310;BME280;5200;43.236;27.986;2022-08-19T09:07:26;99523.81;;;32.21;42.42
10310;BME280;5200;43.236;27.986;2022-08-19T09:10:05;99520.38;;;32.53;42.19
10310;BME280;5200;43.236;27.986;2022-08-19T09:12:39;99527.47;;;32.30;42.29
10310;BME280;5200;43.236;27.986;2022-08-19T09:15:14;99524.38;;;31.99;42.58
10310;BME280;5200;43.236;27.986;2022-08-19T09:17:44;99524.97;;;32.15;42.80
10310;BME280;5200;43.236;27.986;2022-08-19T09:20:18;99521.38;;;32.38;43.42
10310;BME280;5200;43.236;27.986;2022-08-19T09:22:45;99531.25;;;32.72;41.44
10310;BME280;5200;43.236;27.986;2022-08-19T09:25:16;99534.16;;;33.27;41.02
10310;BME280;5200;43.236;27.986;2022-08-19T09:27:43;99536.59;;;33.29;40.42
10310;BME280;5200;43.236;27.986;2022-08-19T09:30:14;99523.19;;;33.33;40.46
10310;BME280;5200;43.236;27.986;2022-08-19T09:32:43;99535.50;;;32.78;40.42
10310;BME280;5200;43.236;27.986;2022-08-19T09:35:11;99545.72;;;32.30;41.15
10310;BME280;5200;43.236;27.986;2022-08-19T09:37:39;99540.41;;;32.38;42.35
10310;BME280;5200;43.236;27.986;2022-08-19T09:40:08;99534.78;;;32.35;42.28
10310;BME280;5200;43.236;27.986;2022-08-19T09:42:35;99543.56;;;32.51;41.28
10310;BME280;5200;43.236;27.986;2022-08-19T09:45:03;99544.25;;;32.37;41.20
10310;BME280;5200;43.236;27.986;2022-08-19T09:47:30;99542.84;;;32.21;41.90
10310;BME280;5200;43.236;27.986;2022-08-19T09:50:03;99549.00;;;32.08;42.20
10310;BME280;5200;43.236;27.986;2022-08-19T09:52:31;99540.56;;;32.28;41.46
10310;BME280;5200;43.236;27.986;2022-08-19T09:54:58;99533.13;;;32.58;41.06
10310;BME280;5200;43.236;27.986;2022-08-19T09:57:25;99522.63;;;32.84;40.15
10310;BME280;5200;43.236;27.986;2022-08-19T09:59:52;99531.72;;;33.12;39.51
10310;BME280;5200;43.236;27.986;2022-08-19T10:02:19;99534.25;;;33.22;39.71
10310;BME280;5200;43.236;27.986;2022-08-19T10:04:45;99546.09;;;33.32;38.94
10310;BME280;5200;43.236;27.986;2022-08-19T10:07:31;99532.34;;;33.23;38.66
10310;BME280;5200;43.236;27.986;2022-08-19T10:09:58;99529.31;;;33.24;38.49
10310;BME280;5200;43.236;27.986;2022-08-19T10:12:25;99540.38;;;32.81;38.98
10310;BME280;5200;43.236;27.986;2022-08-19T10:14:52;99544.88;;;32.53;39.74
10310;BME280;5200;43.236;27.986;2022-08-19T10:17:20;99539.50;;;32.67;39.29
10310;BME280;5200;43.236;27.986;2022-08-19T10:19:46;99543.28;;;33.04;38.48
10310;BME280;5200;43.236;27.986;2022-08-19T10:22:13;99543.16;;;33.14;38.17
10310;BME280;5200;43.236;27.986;2022-08-19T10:24:42;99538.03;;;32.75;39.30
10310;BME280;5200;43.236;27.986;2022-08-19T10:27:09;99544.06;;;32.72;39.86
10310;BME280;5200;43.236;27.986;2022-08-19T10:29:38;99539.25;;;32.82;39.41
10310;BME280;5200;43.236;27.986;2022-08-19T10:32:07;99548.81;;;32.99;39.59
10310;BME280;5200;43.236;27.986;2022-08-19T10:34:35;99560.03;;;33.30;39.65
10310;BME280;5200;43.236;27.986;2022-08-19T10:37:03;99536.41;;;33.25;38.88
10310;BME280;5200;43.236;27.986;2022-08-19T10:39:32;99543.47;;;33.26;38.60
10310;BME280;5200;43.236;27.986;2022-08-19T10:42:04;99551.97;;;33.39;37.90
10310;BME280;5200;43.236;27.986;2022-08-19T10:44:31;99551.31;;;33.14;45.32
10310;BME280;5200;43.236;27.986;2022-08-19T10:47:01;99548.84;;;32.61;49.92
10310;BME280;5200;43.236;27.986;2022-08-19T10:49:28;99555.19;;;32.13;53.33
10310;BME280;5200;43.236;27.986;2022-08-19T10:51:56;99559.94;;;31.20;58.02
10310;BME280;5200;43.236;27.986;2022-08-19T10:54:40;99558.91;;;31.11;58.69
10310;BME280;5200;43.236;27.986;2022-08-19T10:57:30;99571.75;;;31.05;57.79
10310;BME280;5200;43.236;27.986;2022-08-19T10:59:57;99565.19;;;31.06;55.91
10310;BME280;5200;43.236;27.986;2022-08-19T11:02:24;99571.25;;;30.98;56.58
10310;BME280;5200;43.236;27.986;2022-08-19T11:04:51;99569.72;;;30.87;57.94
10310;BME280;5200;43.236;27.986;2022-08-19T11:07:17;99575.63;;;30.94;59.09
10310;BME280;5200;43.236;27.986;2022-08-19T11:09:44;99575.66;;;30.89;57.84
10310;BME280;5200;43.236;27.986;2022-08-19T11:12:12;99576.25;;;30.75;59.31
10310;BME280;5200;43.236;27.986;2022-08-19T11:14:42;99575.03;;;30.58;61.45
10310;BME280;5200;43.236;27.986;2022-08-19T11:17:08;99579.25;;;30.29;61.07
10310;BME280;5200;43.236;27.986;2022-08-19T11:19:36;99584.72;;;30.09;61.85
10310;BME280;5200;43.236;27.986;2022-08-19T11:22:03;99580.78;;;29.45;60.32
10310;BME280;5200;43.236;27.986;2022-08-19T11:24:31;99577.81;;;29.21;60.80
10310;BME280;5200;43.236;27.986;2022-08-19T11:27:03;99588.91;;;29.29;60.40
10310;BME280;5200;43.236;27.986;2022-08-19T11:29:31;99584.31;;;29.45;59.28
10310;BME280;5200;43.236;27.986;2022-08-19T11:32:04;99586.72;;;29.62;58.75
10310;BME280;5200;43.236;27.986;2022-08-19T11:34:31;99578.88;;;29.71;59.97
10310;BME280;5200;43.236;27.986;2022-08-19T11:36:58;99580.50;;;29.72;60.73
10310;BME280;5200;43.236;27.986;2022-08-19T11:39:27;99583.75;;;29.54;60.26
10310;BME280;5200;43.236;27.986;2022-08-19T11:41:54;99584.28;;;29.50;60.08
10310;BME280;5200;43.236;27.986;2022-08-19T11:44:21;99575.63;;;29.38;60.85
10310;BME280;5200;43.236;27.986;2022-08-19T11:46:48;99580.50;;;29.52;59.66
10310;BME280;5200;43.236;27.986;2022-08-19T11:49:18;99574.00;;;29.47;61.75
10310;BME280;5200;43.236;27.986;2022-08-19T11:51:47;99577.22;;;29.60;61.16
10310;BME280;5200;43.236;27.986;2022-08-19T11:54:16;99579.44;;;29.47;62.23
10310;BME280;5200;43.236;27.986;2022-08-19T11:56:44;99571.28;;;29.68;61.91
10310;BME280;5200;43.236;27.986;2022-08-19T11:59:13;99577.50;;;29.74;62.10
10310;BME280;5200;43.236;27.986;2022-08-19T12:01:40;99571.81;;;29.70;62.63
10310;BME280;5200;43.236;27.986;2022-08-19T12:04:07;99571.81;;;29.70;62.68
10310;BME280;5200;43.236;27.986;2022-08-19T12:06:38;99567.47;;;29.74;62.27
10310;BME280;5200;43.236;27.986;2022-08-19T12:09:07;99569.09;;;29.80;62.09
10310;BME280;5200;43.236;27.986;2022-08-19T12:11:35;99574.25;;;29.71;61.67
10310;BME280;5200;43.236;27.986;2022-08-19T12:14:02;99573.44;;;29.61;61.75
10310;BME280;5200;43.236;27.986;2022-08-19T12:16:30;99573.44;;;29.56;62.11
10310;BME280;5200;43.236;27.986;2022-08-19T12:18:58;99573.19;;;29.57;62.00
10310;BME280;5200;43.236;27.986;2022-08-19T12:21:30;99578.63;;;29.52;61.83
10310;BME280;5200;43.236;27.986;2022-08-19T12:23:59;99569.66;;;29.41;62.50
10310;BME280;5200;43.236;27.986;2022-08-19T12:26:28;99567.50;;;29.48;61.99
10310;BME280;5200;43.236;27.986;2022-08-19T12:28:57;99573.47;;;29.45;61.88
10310;BME280;5200;43.236;27.986;2022-08-19T12:31:25;99578.91;;;29.40;61.74
10310;BME280;5200;43.236;27.986;2022-08-19T12:33:51;99579.97;;;29.29;62.52
10310;BME280;5200;43.236;27.986;2022-08-19T12:36:18;99570.22;;;29.38;62.35
10310;BME280;5200;43.236;27.986;2022-08-19T12:38:47;99575.38;;;29.45;61.97
10310;BME280;5200;43.236;27.986;2022-08-19T12:41:16;99571.00;;;29.49;61.72
10310;BME280;5200;43.236;27.986;2022-08-19T12:43:44;99568.59;;;29.37;62.11
10310;BME280;5200;43.236;27.986;2022-08-19T12:46:11;99577.81;;;29.16;62.90
10310;BME280;5200;43.236;27.986;2022-08-19T12:48:39;99581.56;;;28.89;63.73
10310;BME280;5200;43.236;27.986;2022-08-19T12:51:09;99572.34;;;28.90;63.65
10310;BME280;5200;43.236;27.986;2022-08-19T12:53:38;99577.25;;;28.98;63.21
10310;BME280;5200;43.236;27.986;2022-08-19T12:56:05;99569.44;;;29.12;62.65
10310;BME280;5200;43.236;27.986;2022-08-19T12:58:34;99575.91;;;29.11;62.94
10310;BME280;5200;43.236;27.986;2022-08-19T13:01:06;99583.22;;;29.11;63.76
10310;BME280;5200;43.236;27.986;2022-08-19T13:03:34;99577.81;;;29.11;64.06
10310;BME280;5200;43.236;27.986;2022-08-19T13:06:02;99578.91;;;29.20;63.48
10310;BME280;5200;43.236;27.986;2022-08-19T13:08:29;99575.66;;;29.33;62.98